Pampanga, Philippines
Current Conditions -  °F | °C
As of 1:00 PM on Wednesday 26 Nov 2014 (Local Time) from RPLC Reporting Station
Scattered Clouds Scattered Clouds  
Wind Chill: 90°   Ceiling: Unl
Heat Index: 96°   Visibility: 6mi
Dew Point: 72°   Wind: 6mph
Humidity: 55%   Direction: 170°S
Pressure: 29.8"   Gusts: NA
Location:  15.18°N, 120.57°E
Report Text: RPLC 260500Z 17005KT 9999 SCT042 SCT300 32/22 Q1009 RMK NOSIG A2981
Loading
Personal Weather Stations






























Interactive Weather Map New forecast layout! Learn more

10-Day Weather Forecast

Advertisements
Track Severe Weather on mobile